createdAt,value
2019-04-18T00:00:53.639Z,7.2
2019-04-18T00:02:10.167Z,6
2019-04-18T00:03:19.789Z,7.1
2019-04-18T00:04:26.998Z,6.6
2019-04-18T00:05:34.292Z,6.1
2019-04-18T00:06:41.500Z,6.7
2019-04-18T00:07:48.721Z,5.5
2019-04-18T00:08:55.926Z,5.7
2019-04-18T00:10:03.450Z,5.9
2019-04-18T00:11:10.648Z,4.7
2019-04-18T00:12:22.041Z,2.6
2019-04-18T00:13:30.184Z,2.6
2019-04-18T00:14:49.342Z,4.1
2019-04-18T00:15:57.429Z,5.8
2019-04-18T00:17:04.861Z,6.7
2019-04-18T00:18:12.078Z,8.2
2019-04-18T00:19:19.014Z,7.1
2019-04-18T00:20:26.229Z,6.1
2019-04-18T00:21:33.452Z,8.1
2019-04-18T00:22:40.404Z,7.2
2019-04-18T00:23:47.612Z,7.2
2019-04-18T00:24:54.821Z,7.2
2019-04-18T00:26:02.678Z,8.2
2019-04-18T00:27:18.369Z,8.8
2019-04-18T00:28:25.458Z,8.7
2019-04-18T00:29:32.387Z,9.5
2019-04-18T00:30:39.601Z,10.3
2019-04-18T00:31:46.799Z,10.4
2019-04-18T00:32:54.139Z,12.3
2019-04-18T00:34:10.615Z,10.9
2019-04-18T00:35:22.994Z,10.9
2019-04-18T00:36:30.206Z,11.8
2019-04-18T00:37:37.410Z,11.7
2019-04-18T00:38:44.620Z,10.9
2019-04-18T00:39:51.829Z,11.6
2019-04-18T00:40:59.135Z,11.8
2019-04-18T00:42:06.841Z,13.1
2019-04-18T00:43:13.771Z,13.5
2019-04-18T00:44:20.990Z,12.5
2019-04-18T00:45:28.264Z,13.2
2019-04-18T00:46:35.481Z,15.2
2019-04-18T00:47:42.419Z,15.5
2019-04-18T00:48:49.670Z,15.7
2019-04-18T00:49:56.952Z,16.7
2019-04-18T00:51:04.246Z,17.6
2019-04-18T00:52:16.574Z,19.1
2019-04-18T00:53:24.482Z,20
2019-04-18T00:54:31.685Z,21
2019-04-18T00:55:38.899Z,19.9
2019-04-18T00:56:46.108Z,19.6
2019-04-18T00:57:53.328Z,19.7
2019-04-18T00:59:00.542Z,18.5
2019-04-18T01:00:07.842Z,19.3
2019-04-18T01:01:19.417Z,19.1
2019-04-18T01:02:26.625Z,18.9
2019-04-18T01:03:33.829Z,20.2
2019-04-18T01:04:40.777Z,21.3
2019-04-18T01:05:48.000Z,21.9
2019-04-18T01:06:55.226Z,21.3
2019-04-18T01:08:02.432Z,21.6
2019-04-18T01:09:10.385Z,21.3
2019-04-18T01:10:17.358Z,22.7
2019-04-18T01:11:24.296Z,22.2
2019-04-18T01:12:31.942Z,24.2
2019-04-18T01:13:43.011Z,26.3
2019-04-18T01:14:50.807Z,26.4
2019-04-18T01:15:58.333Z,26
2019-04-18T01:17:06.852Z,24.6
2019-04-18T01:18:19.210Z,25.4
2019-04-18T01:19:26.419Z,25
2019-04-18T01:20:33.375Z,24.8
2019-04-18T01:21:40.319Z,24.4
2019-04-18T01:22:48.784Z,25.8
2019-04-18T01:23:56.498Z,28.1
2019-04-18T01:25:04.807Z,28.4
2019-04-18T01:26:14.459Z,27.6
2019-04-18T01:27:21.793Z,30.1
2019-04-18T01:28:29.021Z,33.2
2019-04-18T01:29:36.239Z,33.5
2019-04-18T01:30:43.448Z,34.6
2019-04-18T01:31:50.657Z,34.7
2019-04-18T01:33:01.487Z,37.1
2019-04-18T01:34:17.913Z,37.9
2019-04-18T01:35:25.121Z,38.7
2019-04-18T01:36:32.067Z,30.8
2019-04-18T01:37:39.272Z,34.9
2019-04-18T01:38:46.516Z,36.9
2019-04-18T01:39:53.456Z,44.6
2019-04-18T01:41:00.662Z,48.1
2019-04-18T01:42:07.871Z,46.9
2019-04-18T01:43:15.174Z,46.8
2019-04-18T01:44:22.111Z,55.7
2019-04-18T01:45:29.095Z,51.1
2019-04-18T01:46:36.307Z,49.2
2019-04-18T01:47:43.535Z,66.9
2019-04-18T01:48:50.725Z,63.6
2019-04-18T01:49:57.934Z,73.1
2019-04-18T01:51:05.138Z,71.7
2019-04-18T01:52:12.382Z,74.9
2019-04-18T01:53:19.585Z,73.1
2019-04-18T01:54:30.547Z,73.4
2019-04-18T01:55:37.758Z,70.3
2019-04-18T01:56:44.969Z,73.9
2019-04-18T01:57:52.174Z,71
2019-04-18T01:59:05.922Z,76.9
2019-04-18T02:00:16.806Z,85.9
2019-04-18T02:01:24.026Z,74.9
2019-04-18T02:02:31.379Z,88.3
2019-04-18T02:03:38.598Z,91.4
2019-04-18T02:04:59.737Z,89.3
2019-04-18T02:06:10.795Z,91.9
2019-04-18T02:07:18.547Z,94.5
2019-04-18T02:08:25.753Z,92.7
2019-04-18T02:09:32.426Z,96.2
2019-04-18T02:10:39.637Z,95.4
2019-04-18T02:11:46.300Z,97
2019-04-18T02:12:53.522Z,95.8
2019-04-18T02:14:00.180Z,97.8
2019-04-18T02:15:07.797Z,96.7
2019-04-18T02:16:15.063Z,92.8
2019-04-18T02:17:22.268Z,96.6
2019-04-18T02:18:29.483Z,93.8
2019-04-18T02:19:36.141Z,94.1
2019-04-18T02:20:42.806Z,95.3
2019-04-18T02:21:49.737Z,95
2019-04-18T02:22:56.953Z,97.9
2019-04-18T02:24:04.180Z,96.6
2019-04-18T02:25:11.995Z,99.9
2019-04-18T02:26:19.230Z,99.9
2019-04-18T02:27:26.763Z,99.9
2019-04-18T02:28:34.065Z,99.9
2019-04-18T02:29:42.578Z,99.9
2019-04-18T02:30:55.668Z,99.9
2019-04-18T02:33:13.425Z,99.9
2019-04-18T02:34:20.890Z,99.9
2019-04-18T02:35:29.629Z,99.2
2019-04-18T02:36:37.536Z,99.7
2019-04-18T02:37:46.039Z,98.6
2019-04-18T02:38:56.090Z,99.9
2019-04-18T02:40:04.152Z,99.9
2019-04-18T02:41:13.226Z,99.9
2019-04-18T02:42:20.257Z,99.9
2019-04-18T02:43:27.468Z,99.9
2019-04-18T02:44:34.397Z,99.9
2019-04-18T02:45:41.617Z,99.9
2019-04-18T02:46:48.817Z,99.9
2019-04-18T02:47:56.023Z,99.9
2019-04-18T02:49:03.229Z,99.9
2019-04-18T02:50:11.621Z,99.9
2019-04-18T02:51:19.441Z,99.9
2019-04-18T02:52:26.111Z,99.9
2019-04-18T02:53:33.333Z,99.1
2019-04-18T02:54:41.142Z,98.7
2019-04-18T02:55:52.156Z,97.5
2019-04-18T02:56:59.145Z,98
2019-04-18T02:58:08.956Z,97.1
2019-04-18T02:59:17.677Z,98.2
2019-04-18T03:00:24.983Z,95.8
2019-04-18T03:01:32.187Z,97.6
2019-04-18T03:02:39.398Z,97
2019-04-18T03:03:46.600Z,96.6
2019-04-18T03:04:53.874Z,95.8
2019-04-18T03:06:01.276Z,95.6
2019-04-18T03:07:08.843Z,98
2019-04-18T03:08:16.205Z,98.3
2019-04-18T03:09:23.425Z,99.9
2019-04-18T03:10:30.589Z,98.7
2019-04-18T03:11:37.806Z,99.9
2019-04-18T03:12:45.016Z,99.7
2019-04-18T03:13:52.232Z,98.8
2019-04-18T03:14:59.168Z,98.1
2019-04-18T03:16:08.769Z,99.9
2019-04-18T03:17:17.217Z,99.9
2019-04-18T03:18:24.418Z,99.9
2019-04-18T03:19:31.368Z,98.9
2019-04-18T03:20:38.575Z,99.9
2019-04-18T03:21:45.794Z,99.5
2019-04-18T03:22:53.003Z,99.9
2019-04-18T03:24:00.206Z,99.9
2019-04-18T03:25:08.104Z,99.9
2019-04-18T03:26:15.483Z,99.9
2019-04-18T03:27:22.416Z,99.9
2019-04-18T03:28:29.350Z,99.9
2019-04-18T03:29:36.567Z,99.9
2019-04-18T03:30:43.801Z,99.9
2019-04-18T03:31:57.781Z,99.9
2019-04-18T03:33:15.483Z,99.9
2019-04-18T03:34:30.324Z,99.9
2019-04-18T03:35:48.172Z,99.9
2019-04-18T03:37:05.284Z,99.9
2019-04-18T03:38:15.121Z,99.9
2019-04-18T03:39:22.447Z,99.9
2019-04-18T03:40:29.868Z,99.9
2019-04-18T03:41:37.078Z,99.9
2019-04-18T03:42:44.023Z,99.9
2019-04-18T03:43:51.232Z,99.9
2019-04-18T03:44:57.901Z,99.9
2019-04-18T03:46:05.314Z,99.9
2019-04-18T03:47:12.767Z,99.9
2019-04-18T03:48:19.975Z,99.9
2019-04-18T03:49:27.203Z,99.9
2019-04-18T03:50:34.409Z,99.9
2019-04-18T03:51:41.614Z,99.9
2019-04-18T03:52:48.550Z,99.9
2019-04-18T03:53:55.759Z,99.9
2019-04-18T03:55:03.008Z,99.9
2019-04-18T03:56:10.894Z,99.8
2019-04-18T03:57:18.580Z,99.4
2019-04-18T03:58:25.803Z,99.3
2019-04-18T03:59:32.738Z,98.4
2019-04-18T04:00:39.413Z,98
2019-04-18T04:01:46.619Z,98.1
2019-04-18T04:02:53.826Z,97.8
2019-04-18T04:04:01.040Z,97.9
2019-04-18T04:05:08.240Z,98
2019-04-18T04:06:20.367Z,98.1
2019-04-18T04:07:27.960Z,96.9
2019-04-18T04:08:35.167Z,96.2
2019-04-18T04:09:42.095Z,95.4
2019-04-18T04:10:49.303Z,95.3
2019-04-18T04:11:56.504Z,95.5
2019-04-18T04:13:03.505Z,94.8
2019-04-18T04:14:11.555Z,94.4
2019-04-18T04:15:19.093Z,95.2
2019-04-18T04:16:26.065Z,95.3
2019-04-18T04:17:37.344Z,94.9
2019-04-18T04:18:47.590Z,95.2
2019-04-18T04:19:54.710Z,95.5
2019-04-18T04:21:01.656Z,95.2
2019-04-18T04:22:11.973Z,94.8
2019-04-18T04:23:21.538Z,94.7
2019-04-18T04:24:28.752Z,94.4
2019-04-18T04:25:35.959Z,94.1
2019-04-18T04:26:43.179Z,94.2
2019-04-18T04:27:50.806Z,94.4
2019-04-18T04:29:02.279Z,94.4
2019-04-18T04:30:12.523Z,94.4
2019-04-18T04:31:23.379Z,94.3
2019-04-18T04:32:30.893Z,94.6
2019-04-18T04:33:40.133Z,95
2019-04-18T04:34:47.412Z,94.9
2019-04-18T04:35:57.935Z,94.2
2019-04-18T04:37:08.468Z,95.8
2019-04-18T04:38:18.788Z,96
2019-04-18T04:39:27.617Z,95.8
2019-04-18T04:40:38.819Z,95.8
2019-04-18T04:41:46.032Z,95.8
2019-04-18T04:42:53.246Z,95.7
2019-04-18T04:44:00.449Z,95.5
2019-04-18T04:45:07.383Z,95.2
2019-04-18T04:46:14.889Z,94.4
2019-04-18T04:47:22.406Z,94.1
2019-04-18T04:48:29.145Z,94.2
2019-04-18T04:49:36.359Z,93.6
2019-04-18T04:50:43.569Z,93.6
2019-04-18T04:51:53.995Z,92.9
2019-04-18T04:53:02.008Z,92.6
2019-04-18T04:54:10.318Z,92.1
2019-04-18T04:55:18.290Z,92.6
2019-04-18T04:56:25.508Z,93
2019-04-18T04:57:32.729Z,93
2019-04-18T04:58:39.670Z,93.8
2019-04-18T04:59:51.541Z,93.1
2019-04-18T05:00:58.657Z,92.9
2019-04-18T05:02:07.610Z,94.2
2019-04-18T05:03:18.191Z,94.3
2019-04-18T05:04:25.252Z,95.5
2019-04-18T05:05:32.473Z,95.9
2019-04-18T05:06:43.219Z,97
2019-04-18T05:07:52.218Z,98.8
2019-04-18T05:09:04.464Z,99.2
2019-04-18T05:10:14.323Z,98.7
2019-04-18T05:11:22.885Z,97.5
2019-04-18T05:12:30.163Z,99.9
2019-04-18T05:13:37.581Z,99.9
2019-04-18T05:14:44.533Z,99.9
2019-04-18T05:15:53.710Z,99.9
2019-04-18T05:17:01.422Z,99.9
2019-04-18T05:18:09.047Z,99.9
2019-04-18T05:19:16.718Z,99.9
2019-04-18T05:20:24.246Z,99.9
2019-04-18T05:21:30.898Z,99.9
2019-04-18T05:22:53.555Z,99.9
2019-04-18T05:24:01.471Z,99.9
2019-04-18T05:25:10.795Z,99.9
2019-04-18T05:26:19.099Z,99.9
2019-04-18T05:27:29.490Z,99.9
2019-04-18T05:28:36.350Z,99.9
2019-04-18T05:29:46.446Z,99.5
2019-04-18T05:30:53.788Z,99
2019-04-18T05:32:00.998Z,99.2
2019-04-18T05:33:09.925Z,98.8
2019-04-18T05:34:19.380Z,99.3
2019-04-18T05:35:26.587Z,98.1
2019-04-18T05:36:34.126Z,97.8
2019-04-18T05:38:03.144Z,97.5
2019-04-18T05:39:10.370Z,96.9
2019-04-18T05:40:17.987Z,98
2019-04-18T05:41:25.192Z,96.9
2019-04-18T05:42:32.400Z,96.7
2019-04-18T05:43:39.615Z,96.9
2019-04-18T05:44:46.838Z,96.7
2019-04-18T05:45:54.150Z,96.9
2019-04-18T05:47:01.362Z,95.3
2019-04-18T05:48:08.963Z,94.5
2019-04-18T05:49:17.245Z,95.4
2019-04-18T05:50:24.480Z,93.2
2019-04-18T05:51:31.725Z,93.4
2019-04-18T05:52:42.988Z,92.2
2019-04-18T05:53:50.207Z,91.2
2019-04-18T05:54:57.444Z,94.3
2019-04-18T05:56:04.378Z,90.2
2019-04-18T05:57:12.159Z,89.1
2019-04-18T05:58:19.874Z,88.5
2019-04-18T05:59:26.814Z,86.9
2019-04-18T06:00:33.754Z,87.1
2019-04-18T06:01:41.640Z,86.7
2019-04-18T06:02:49.803Z,82.7
2019-04-18T06:04:01.054Z,82.9
2019-04-18T06:05:08.289Z,83
2019-04-18T06:06:17.495Z,79.6
2019-04-18T06:07:27.665Z,79.8
2019-04-18T06:08:35.037Z,74.6
2019-04-18T06:09:42.769Z,69.8
2019-04-18T06:10:50.704Z,67.7
2019-04-18T06:11:58.564Z,67.3
2019-04-18T06:13:06.756Z,64.6
2019-04-18T06:14:14.731Z,59.7
2019-04-18T06:15:23.779Z,59.2
2019-04-18T06:16:30.838Z,52.8
2019-04-18T06:17:38.045Z,52.2
2019-04-18T06:18:45.251Z,55.3
2019-04-18T06:19:54.840Z,48.3
2019-04-18T06:21:05.719Z,44.3
2019-04-18T06:22:18.916Z,38.1
2019-04-18T06:23:26.914Z,38.1
2019-04-18T06:24:34.931Z,36.4
2019-04-18T06:25:42.250Z,34.7
2019-04-18T06:26:49.190Z,32.1
2019-04-18T06:27:56.401Z,25.6
2019-04-18T06:29:03.355Z,18.5
2019-04-18T06:30:10.557Z,20.9
2019-04-18T06:31:18.443Z,40.2
2019-04-18T06:32:25.604Z,25.1
2019-04-18T06:33:36.283Z,11.9
2019-04-18T06:34:43.921Z,10.9
2019-04-18T06:35:51.131Z,9.3
2019-04-18T06:36:58.665Z,16.6
2019-04-18T06:38:06.391Z,14.5
2019-04-18T06:39:14.817Z,11.1
2019-04-18T06:40:25.494Z,4.1
2019-04-18T06:41:39.959Z,1
2019-04-18T06:42:49.284Z,1
2019-04-18T06:43:58.052Z,1
2019-04-18T06:45:06.287Z,2.3
2019-04-18T06:46:22.441Z,1
2019-04-18T06:47:33.047Z,1
2019-04-18T06:48:40.431Z,1.9
2019-04-18T06:49:48.626Z,1
2019-04-18T06:50:57.189Z,1
2019-04-18T06:52:06.068Z,1
2019-04-18T06:53:18.608Z,1
2019-04-18T06:54:30.050Z,1
2019-04-18T06:55:37.412Z,1
2019-04-18T06:56:46.027Z,1
2019-04-18T06:57:58.953Z,1
2019-04-18T06:59:07.656Z,1
2019-04-18T07:00:15.086Z,1
2019-04-18T07:01:22.526Z,1
2019-04-18T07:02:29.735Z,1
2019-04-18T07:03:36.958Z,1
2019-04-18T07:04:43.894Z,1
2019-04-18T07:05:50.826Z,1
2019-04-18T07:06:58.034Z,1
2019-04-18T07:08:05.255Z,1
2019-04-18T07:09:12.194Z,1
2019-04-18T07:10:19.769Z,1
2019-04-18T07:11:27.129Z,1
2019-04-18T07:12:34.353Z,1
2019-04-18T07:13:41.316Z,1
2019-04-18T07:14:48.536Z,1
2019-04-18T07:15:55.480Z,1
2019-04-18T07:17:02.686Z,1
2019-04-18T07:18:13.674Z,1
2019-04-18T07:19:20.606Z,1
2019-04-18T07:20:27.559Z,1
2019-04-18T07:21:36.785Z,1
2019-04-18T07:22:43.862Z,1
2019-04-18T07:23:51.071Z,1
2019-04-18T07:24:58.299Z,1
2019-04-18T07:26:07.413Z,1
2019-04-18T07:27:15.977Z,1
2019-04-18T07:28:24.688Z,1
2019-04-18T07:29:33.163Z,1
2019-04-18T07:30:44.392Z,1
2019-04-18T07:31:51.867Z,1
2019-04-18T07:32:59.080Z,1
2019-04-18T07:34:06.305Z,1
2019-04-18T07:35:14.532Z,1
2019-04-18T07:36:21.794Z,1
2019-04-18T07:37:29.010Z,1
2019-04-18T07:38:35.939Z,1
2019-04-18T07:39:43.167Z,1
2019-04-18T07:40:50.378Z,1
2019-04-18T07:41:57.606Z,1
2019-04-18T07:43:04.823Z,1
2019-04-18T07:44:12.456Z,1
2019-04-18T07:45:20.315Z,1
2019-04-18T07:46:29.577Z,1
2019-04-18T07:47:37.465Z,1
2019-04-18T07:48:44.680Z,1
2019-04-18T07:49:51.377Z,1
2019-04-18T07:50:58.298Z,1
2019-04-18T07:52:05.251Z,1
2019-04-18T07:53:12.471Z,1
2019-04-18T07:54:29.936Z,1
2019-04-18T07:55:37.147Z,1
2019-04-18T07:56:44.090Z,1
2019-04-18T07:57:51.926Z,1
2019-04-18T07:59:06.091Z,1
2019-04-18T08:00:25.721Z,1
2019-04-18T08:01:32.655Z,1
2019-04-18T08:02:39.871Z,1
2019-04-18T08:03:52.350Z,1
2019-04-18T08:05:22.983Z,1
2019-04-18T08:06:30.199Z,1
2019-04-18T08:07:37.140Z,1
2019-04-18T08:08:44.077Z,1
2019-04-18T08:09:51.303Z,1
2019-04-18T08:10:58.235Z,1
2019-04-18T08:12:05.180Z,1
2019-04-18T08:13:12.400Z,1
2019-04-18T08:14:20.216Z,1
2019-04-18T08:15:27.772Z,1
2019-04-18T08:16:38.112Z,1
2019-04-18T08:17:49.125Z,1
2019-04-18T08:19:00.304Z,1
2019-04-18T08:20:08.264Z,1
2019-04-18T08:21:15.723Z,1
2019-04-18T08:22:23.392Z,1
2019-04-18T08:23:34.674Z,1
2019-04-18T08:24:46.337Z,1
2019-04-18T08:25:54.949Z,1
2019-04-18T08:27:03.677Z,1
2019-04-18T08:28:12.498Z,1
2019-04-18T08:29:27.954Z,1
2019-04-18T08:30:35.502Z,1
2019-04-18T08:31:42.714Z,1
2019-04-18T08:32:49.940Z,1
2019-04-18T08:33:56.897Z,1
2019-04-18T08:35:04.126Z,1
2019-04-18T08:36:11.781Z,1
2019-04-18T08:37:21.864Z,1
2019-04-18T08:38:32.617Z,1
2019-04-18T08:39:43.069Z,1
2019-04-18T08:40:55.629Z,1
2019-04-18T08:42:02.842Z,1
2019-04-18T08:43:10.062Z,1
2019-04-18T08:44:21.831Z,1
2019-04-18T08:45:32.048Z,1
2019-04-18T08:46:39.347Z,1
2019-04-18T08:47:49.309Z,1
2019-04-18T08:48:57.615Z,1
2019-04-18T08:50:10.094Z,1
2019-04-18T08:51:17.042Z,1
2019-04-18T08:52:24.452Z,1
2019-04-18T08:53:47.343Z,1
2019-04-18T08:54:56.344Z,1
2019-04-18T08:56:03.559Z,1
2019-04-18T08:57:12.422Z,1
2019-04-18T08:58:20.583Z,1
2019-04-18T08:59:37.763Z,1
2019-04-18T09:00:46.623Z,1
2019-04-18T09:01:53.837Z,1
2019-04-18T09:03:01.049Z,1
2019-04-18T09:04:08.278Z,1
2019-04-18T09:05:24.221Z,1
2019-04-18T09:06:38.833Z,1
2019-04-18T09:07:51.616Z,1
2019-04-18T09:09:03.198Z,1
2019-04-18T09:10:13.984Z,1
2019-04-18T09:11:27.084Z,1
2019-04-18T09:12:40.240Z,1
2019-04-18T09:13:55.708Z,1
2019-04-18T09:15:15.236Z,1
2019-04-18T09:16:28.411Z,1
2019-04-18T09:17:38.526Z,1
2019-04-18T09:18:49.386Z,1
2019-04-18T09:20:09.715Z,1
2019-04-18T09:21:25.165Z,1
2019-04-18T09:22:33.793Z,1
2019-04-18T09:23:45.843Z,1
2019-04-18T09:24:56.260Z,1
2019-04-18T09:26:06.175Z,1
2019-04-18T09:27:20.317Z,1
2019-04-18T09:28:34.110Z,1
2019-04-18T09:29:58.868Z,1
2019-04-18T09:31:15.062Z,1
2019-04-18T09:32:22.069Z,1
2019-04-18T09:33:29.295Z,1
2019-04-18T09:34:36.506Z,1
2019-04-18T09:35:45.534Z,1
2019-04-18T09:37:06.336Z,1
2019-04-18T09:38:14.791Z,1
2019-04-18T09:39:22.580Z,1
2019-04-18T09:40:29.897Z,1
2019-04-18T22:00:12.773Z,1
2019-04-18T22:01:43.873Z,1
2019-04-18T22:02:57.989Z,1
2019-04-18T22:04:24.478Z,1
2019-04-18T22:05:53.555Z,1
2019-04-18T22:07:21.970Z,1
2019-04-18T22:09:08.274Z,1
2019-04-18T22:10:21.716Z,1
2019-04-18T22:11:44.410Z,1
2019-04-18T22:13:14.875Z,1
2019-04-18T22:14:23.290Z,1
2019-04-18T22:15:36.719Z,1
2019-04-18T22:16:57.790Z,1
2019-04-18T22:18:07.566Z,1
2019-04-18T22:19:15.913Z,1
2019-04-18T22:20:26.066Z,1
2019-04-18T22:21:39.808Z,1
2019-04-18T22:23:01.632Z,1
2019-04-18T22:24:13.740Z,1
2019-04-18T22:25:34.452Z,1
2019-04-18T22:27:07.274Z,1
2019-04-18T22:28:31.175Z,1
2019-04-18T22:29:53.893Z,1
2019-04-18T22:31:22.102Z,1
2019-04-18T22:32:39.358Z,1
2019-04-18T22:34:10.560Z,1
2019-04-18T22:35:38.864Z,1
2019-04-18T22:37:01.583Z,1
2019-04-18T22:38:40.243Z,1
2019-04-18T22:40:04.309Z,1
2019-04-18T22:41:31.385Z,1
2019-04-18T22:42:54.531Z,1
2019-04-18T22:44:14.211Z,1
2019-04-18T22:45:38.381Z,1
2019-04-18T22:47:00.885Z,1
2019-04-18T22:48:27.436Z,1
2019-04-18T22:49:51.526Z,1
2019-04-18T22:51:10.283Z,1
2019-04-18T22:52:25.103Z,1
2019-04-18T22:53:47.816Z,1
2019-04-18T22:55:14.614Z,1
2019-04-18T22:56:39.638Z,1
2019-04-18T22:58:08.651Z,1
2019-04-18T22:59:32.179Z,1
2019-04-18T23:01:06.884Z,1
2019-04-18T23:02:30.928Z,1
2019-04-18T23:03:41.403Z,1
2019-04-18T23:04:50.443Z,1
2019-04-18T23:05:58.873Z,1
2019-04-18T23:07:12.196Z,1
2019-04-18T23:08:32.059Z,1
2019-04-18T23:10:19.677Z,1
2019-04-18T23:11:48.408Z,1
2019-04-18T23:13:18.048Z,1
2019-04-18T23:14:45.466Z,1
2019-04-18T23:16:11.124Z,1
2019-04-18T23:17:37.081Z,1
2019-04-18T23:18:59.130Z,1
2019-04-18T23:20:24.095Z,1
2019-04-18T23:21:48.132Z,1
2019-04-18T23:23:14.447Z,1
2019-04-18T23:24:36.883Z,1
2019-04-18T23:26:00.955Z,1
2019-04-18T23:27:28.174Z,1
2019-04-18T23:28:47.636Z,1
2019-04-18T23:30:27.679Z,1
2019-04-18T23:31:47.135Z,1
2019-04-18T23:33:12.649Z,1
2019-04-18T23:34:35.333Z,1
2019-04-18T23:35:59.208Z,1
2019-04-18T23:37:20.376Z,1
2019-04-18T23:38:44.351Z,1
2019-04-18T23:40:27.923Z,1
2019-04-18T23:41:53.662Z,1
2019-04-18T23:43:23.933Z,1
2019-04-18T23:44:47.334Z,1
2019-04-18T23:46:16.796Z,1
2019-04-18T23:47:40.913Z,1
2019-04-18T23:49:02.917Z,1
2019-04-18T23:50:31.500Z,1
2019-04-18T23:51:43.291Z,1
2019-04-18T23:53:02.150Z,1
2019-04-18T23:54:21.935Z,1
2019-04-18T23:55:47.308Z,1
2019-04-18T23:57:13.311Z,1
2019-04-18T23:58:41.895Z,1
